Main page
METAR-TAF:

METAR-TAF

Airports :

Cork Airport

Cork, Ireland

latitude: 51-51N, longitude: 008-29W, elevation: 153 m

Current weather observation

The report was made 43 minutes ago, at 19:30 UTC
Wind 2 kt from the West/Southwest
Temperature 6°C
Humidity 81%
Pressure 1037 hPa
Visibility 10 km or more
Broken clouds at a height of 2000 ft

METAR: EICK 221930Z 24002KT 9999 BKN020 06/03 Q1037 NOSIG

Time: 20:13 (20:13 UTC)

Forecast

The report was made 3 hours and 13 minutes ago, at 17:00 UTC
Forecast valid from 22 at 18 UTC to 23 at 18 UTC
Wind 3 kt from variable directions
Visibility 10 km or more
Broken clouds at a height of 2000 ft
Becoming
from 23 at 09 UTC to 23 at 11 UTC
Wind 10 kt from the South
Probability 30% :
Temporary
from 23 at 13 UTC to 23 at 18 UTC
Broken clouds at a height of 1200 ft

TAF: EICK 221700Z 2218/2318 VRB03KT 9999 BKN020 BECMG 2309/2311 19010KT PROB30 TEMPO 2313/2318 BKN012

Weather observations and forecasts of more than 4000 airports (METAR and TAF reports).

The available stations are represented by yellow and red dots on the map.

Hover mouse over dot to see the name of the station.

Then click to see weather observations and forecasts.

To change the map : click on the green buttons with a black cross to zoom in, on the green button with a dash to zoom out, or on the green arrows for adjacent maps.


METAR-TAF: